sensor_id;sensor_type;location;lat;lon;timestamp;P1;durP1;ratioP1;P2;durP2;ratioP2
55655;SDS011;41530;52.382;5.270;2023-02-04T00:01:42;13.27;;;2.20;;
55655;SDS011;41530;52.382;5.270;2023-02-04T00:04:12;10.35;;;2.80;;
55655;SDS011;41530;52.382;5.270;2023-02-04T00:06:39;14.70;;;2.97;;
55655;SDS011;41530;52.382;5.270;2023-02-04T00:09:06;12.13;;;2.72;;
55655;SDS011;41530;52.382;5.270;2023-02-04T00:11:34;9.82;;;2.50;;
55655;SDS011;41530;52.382;5.270;2023-02-04T00:14:01;11.73;;;2.38;;
55655;SDS011;41530;52.382;5.270;2023-02-04T00:16:35;13.75;;;2.70;;
55655;SDS011;41530;52.382;5.270;2023-02-04T00:19:04;18.88;;;3.10;;
55655;SDS011;41530;52.382;5.270;2023-02-04T00:21:36;12.90;;;2.67;;
55655;SDS011;41530;52.382;5.270;2023-02-04T00:24:04;16.77;;;2.58;;
55655;SDS011;41530;52.382;5.270;2023-02-04T00:26:33;11.55;;;2.47;;
55655;SDS011;41530;52.382;5.270;2023-02-04T00:29:03;16.90;;;2.80;;
55655;SDS011;41530;52.382;5.270;2023-02-04T00:31:35;15.40;;;2.78;;
55655;SDS011;41530;52.382;5.270;2023-02-04T00:34:04;16.20;;;2.78;;
55655;SDS011;41530;52.382;5.270;2023-02-04T00:36:43;15.90;;;2.45;;
55655;SDS011;41530;52.382;5.270;2023-02-04T00:39:10;16.30;;;2.63;;
55655;SDS011;41530;52.382;5.270;2023-02-04T00:41:46;13.25;;;2.60;;
55655;SDS011;41530;52.382;5.270;2023-02-04T00:44:13;11.30;;;3.10;;
55655;SDS011;41530;52.382;5.270;2023-02-04T00:46:41;13.48;;;2.60;;
55655;SDS011;41530;52.382;5.270;2023-02-04T00:49:12;19.27;;;2.80;;
55655;SDS011;41530;52.382;5.270;2023-02-04T00:51:41;13.07;;;2.90;;
55655;SDS011;41530;52.382;5.270;2023-02-04T00:54:14;18.27;;;2.90;;
55655;SDS011;41530;52.382;5.270;2023-02-04T00:56:45;14.80;;;2.85;;
55655;SDS011;41530;52.382;5.270;2023-02-04T00:59:13;14.65;;;2.92;;
55655;SDS011;41530;52.382;5.270;2023-02-04T01:01:44;13.55;;;2.80;;
55655;SDS011;41530;52.382;5.270;2023-02-04T01:04:11;14.07;;;2.38;;
55655;SDS011;41530;52.382;5.270;2023-02-04T01:06:38;18.05;;;2.83;;
55655;SDS011;41530;52.382;5.270;2023-02-04T01:09:08;19.50;;;3.05;;
55655;SDS011;41530;52.382;5.270;2023-02-04T01:11:39;16.02;;;2.60;;
55655;SDS011;41530;52.382;5.270;2023-02-04T01:14:05;13.48;;;2.60;;
55655;SDS011;41530;52.382;5.270;2023-02-04T01:16:39;17.08;;;2.65;;
55655;SDS011;41530;52.382;5.270;2023-02-04T01:19:09;13.32;;;2.75;;
55655;SDS011;41530;52.382;5.270;2023-02-04T01:21:38;13.38;;;2.70;;
55655;SDS011;41530;52.382;5.270;2023-02-04T01:24:10;13.60;;;2.78;;
55655;SDS011;41530;52.382;5.270;2023-02-04T01:26:37;13.85;;;3.05;;
55655;SDS011;41530;52.382;5.270;2023-02-04T01:29:06;14.20;;;2.60;;
55655;SDS011;41530;52.382;5.270;2023-02-04T01:31:36;14.57;;;2.75;;
55655;SDS011;41530;52.382;5.270;2023-02-04T01:34:06;11.35;;;2.08;;
55655;SDS011;41530;52.382;5.270;2023-02-04T01:36:35;13.30;;;2.83;;
55655;SDS011;41530;52.382;5.270;2023-02-04T01:39:14;16.55;;;2.70;;
55655;SDS011;41530;52.382;5.270;2023-02-04T01:41:47;12.60;;;2.60;;
55655;SDS011;41530;52.382;5.270;2023-02-04T01:44:15;10.40;;;2.72;;
55655;SDS011;41530;52.382;5.270;2023-02-04T01:46:44;11.43;;;2.50;;
55655;SDS011;41530;52.382;5.270;2023-02-04T01:49:13;16.10;;;3.08;;
55655;SDS011;41530;52.382;5.270;2023-02-04T01:51:41;19.45;;;3.10;;
55655;SDS011;41530;52.382;5.270;2023-02-04T01:54:10;15.85;;;2.85;;
55655;SDS011;41530;52.382;5.270;2023-02-04T01:56:45;11.45;;;2.83;;
55655;SDS011;41530;52.382;5.270;2023-02-04T01:59:18;12.73;;;2.83;;
55655;SDS011;41530;52.382;5.270;2023-02-04T02:01:49;18.60;;;2.83;;
55655;SDS011;41530;52.382;5.270;2023-02-04T02:04:30;18.23;;;2.75;;
55655;SDS011;41530;52.382;5.270;2023-02-04T02:06:59;16.02;;;2.80;;
55655;SDS011;41530;52.382;5.270;2023-02-04T02:09:33;14.38;;;3.03;;
55655;SDS011;41530;52.382;5.270;2023-02-04T02:12:00;10.40;;;2.45;;
55655;SDS011;41530;52.382;5.270;2023-02-04T02:14:37;16.98;;;2.75;;
55655;SDS011;41530;52.382;5.270;2023-02-04T02:17:27;18.67;;;3.70;;
55655;SDS011;41530;52.382;5.270;2023-02-04T02:19:59;16.58;;;2.47;;
55655;SDS011;41530;52.382;5.270;2023-02-04T02:22:31;14.15;;;3.13;;
55655;SDS011;41530;52.382;5.270;2023-02-04T02:25:09;13.63;;;3.00;;
55655;SDS011;41530;52.382;5.270;2023-02-04T02:27:43;15.40;;;2.88;;
55655;SDS011;41530;52.382;5.270;2023-02-04T02:32:48;14.27;;;2.53;;
55655;SDS011;41530;52.382;5.270;2023-02-04T02:35:17;18.00;;;2.90;;
55655;SDS011;41530;52.382;5.270;2023-02-04T02:37:45;14.98;;;2.72;;
55655;SDS011;41530;52.382;5.270;2023-02-04T02:40:12;12.90;;;2.53;;
55655;SDS011;41530;52.382;5.270;2023-02-04T02:42:41;15.48;;;3.15;;
55655;SDS011;41530;52.382;5.270;2023-02-04T02:45:11;14.60;;;3.08;;
55655;SDS011;41530;52.382;5.270;2023-02-04T02:47:46;13.00;;;2.60;;
55655;SDS011;41530;52.382;5.270;2023-02-04T02:50:14;13.35;;;2.63;;
55655;SDS011;41530;52.382;5.270;2023-02-04T02:52:43;13.05;;;2.75;;
55655;SDS011;41530;52.382;5.270;2023-02-04T02:55:16;11.65;;;2.50;;
55655;SDS011;41530;52.382;5.270;2023-02-04T02:57:44;14.35;;;2.50;;
55655;SDS011;41530;52.382;5.270;2023-02-04T03:00:14;15.43;;;2.83;;
55655;SDS011;41530;52.382;5.270;2023-02-04T03:02:42;13.80;;;2.65;;
55655;SDS011;41530;52.382;5.270;2023-02-04T03:05:10;12.13;;;2.60;;
55655;SDS011;41530;52.382;5.270;2023-02-04T03:07:38;13.90;;;2.55;;
55655;SDS011;41530;52.382;5.270;2023-02-04T03:10:05;15.63;;;2.78;;
55655;SDS011;41530;52.382;5.270;2023-02-04T03:12:33;14.80;;;2.70;;
55655;SDS011;41530;52.382;5.270;2023-02-04T03:15:01;14.77;;;2.78;;
55655;SDS011;41530;52.382;5.270;2023-02-04T03:17:29;16.65;;;2.45;;
55655;SDS011;41530;52.382;5.270;2023-02-04T03:19:57;10.75;;;2.83;;
55655;SDS011;41530;52.382;5.270;2023-02-04T03:22:24;13.43;;;2.65;;
55655;SDS011;41530;52.382;5.270;2023-02-04T03:24:51;13.68;;;2.53;;
55655;SDS011;41530;52.382;5.270;2023-02-04T03:27:18;15.07;;;2.63;;
55655;SDS011;41530;52.382;5.270;2023-02-04T03:29:46;15.40;;;2.60;;
55655;SDS011;41530;52.382;5.270;2023-02-04T03:32:13;10.98;;;2.55;;
55655;SDS011;41530;52.382;5.270;2023-02-04T03:34:39;12.55;;;2.60;;
55655;SDS011;41530;52.382;5.270;2023-02-04T03:37:06;12.20;;;2.33;;
55655;SDS011;41530;52.382;5.270;2023-02-04T03:39:33;10.85;;;2.45;;
55655;SDS011;41530;52.382;5.270;2023-02-04T03:42:00;10.90;;;2.85;;
55655;SDS011;41530;52.382;5.270;2023-02-04T03:44:26;13.63;;;2.70;;
55655;SDS011;41530;52.382;5.270;2023-02-04T03:46:53;11.95;;;2.33;;
55655;SDS011;41530;52.382;5.270;2023-02-04T03:49:23;13.90;;;2.58;;
55655;SDS011;41530;52.382;5.270;2023-02-04T03:51:50;13.70;;;2.55;;
55655;SDS011;41530;52.382;5.270;2023-02-04T03:54:17;11.80;;;2.33;;
55655;SDS011;41530;52.382;5.270;2023-02-04T03:56:44;14.25;;;3.33;;
55655;SDS011;41530;52.382;5.270;2023-02-04T03:59:11;10.75;;;2.35;;
55655;SDS011;41530;52.382;5.270;2023-02-04T04:01:38;10.88;;;2.53;;
55655;SDS011;41530;52.382;5.270;2023-02-04T04:04:05;11.02;;;2.13;;
55655;SDS011;41530;52.382;5.270;2023-02-04T04:06:31;13.50;;;2.47;;
55655;SDS011;41530;52.382;5.270;2023-02-04T04:08:58;9.90;;;2.00;;
55655;SDS011;41530;52.382;5.270;2023-02-04T04:11:25;12.05;;;2.17;;
55655;SDS011;41530;52.382;5.270;2023-02-04T04:13:53;14.75;;;2.80;;
55655;SDS011;41530;52.382;5.270;2023-02-04T04:16:20;10.98;;;2.33;;
55655;SDS011;41530;52.382;5.270;2023-02-04T04:18:47;10.88;;;2.78;;
55655;SDS011;41530;52.382;5.270;2023-02-04T04:21:14;12.57;;;2.45;;
55655;SDS011;41530;52.382;5.270;2023-02-04T04:23:40;10.77;;;2.03;;
55655;SDS011;41530;52.382;5.270;2023-02-04T04:26:07;14.90;;;2.63;;
55655;SDS011;41530;52.382;5.270;2023-02-04T04:28:35;10.52;;;2.40;;
55655;SDS011;41530;52.382;5.270;2023-02-04T04:31:01;14.68;;;2.47;;
55655;SDS011;41530;52.382;5.270;2023-02-04T04:33:28;12.10;;;2.08;;
55655;SDS011;41530;52.382;5.270;2023-02-04T04:35:54;9.32;;;2.30;;
55655;SDS011;41530;52.382;5.270;2023-02-04T04:38:21;13.38;;;2.67;;
55655;SDS011;41530;52.382;5.270;2023-02-04T04:40:48;10.77;;;2.28;;
55655;SDS011;41530;52.382;5.270;2023-02-04T04:43:15;16.33;;;2.53;;
55655;SDS011;41530;52.382;5.270;2023-02-04T04:45:42;12.60;;;2.33;;
55655;SDS011;41530;52.382;5.270;2023-02-04T04:48:09;11.07;;;2.50;;
55655;SDS011;41530;52.382;5.270;2023-02-04T04:50:36;9.95;;;2.20;;
55655;SDS011;41530;52.382;5.270;2023-02-04T04:53:03;12.35;;;2.53;;
55655;SDS011;41530;52.382;5.270;2023-02-04T04:55:30;13.23;;;2.67;;
55655;SDS011;41530;52.382;5.270;2023-02-04T04:57:57;11.27;;;2.20;;
55655;SDS011;41530;52.382;5.270;2023-02-04T05:00:25;10.65;;;2.40;;
55655;SDS011;41530;52.382;5.270;2023-02-04T05:02:52;11.82;;;2.40;;
55655;SDS011;41530;52.382;5.270;2023-02-04T05:05:19;10.50;;;1.98;;
55655;SDS011;41530;52.382;5.270;2023-02-04T05:07:45;10.38;;;2.22;;
55655;SDS011;41530;52.382;5.270;2023-02-04T05:10:12;13.00;;;2.35;;
55655;SDS011;41530;52.382;5.270;2023-02-04T05:12:39;13.00;;;2.33;;
55655;SDS011;41530;52.382;5.270;2023-02-04T05:15:06;10.88;;;2.08;;
55655;SDS011;41530;52.382;5.270;2023-02-04T05:17:34;12.60;;;1.92;;
55655;SDS011;41530;52.382;5.270;2023-02-04T05:20:01;11.35;;;2.13;;
55655;SDS011;41530;52.382;5.270;2023-02-04T05:22:28;12.43;;;2.55;;
55655;SDS011;41530;52.382;5.270;2023-02-04T05:24:55;10.05;;;2.20;;
55655;SDS011;41530;52.382;5.270;2023-02-04T05:27:21;7.50;;;2.00;;
55655;SDS011;41530;52.382;5.270;2023-02-04T05:29:48;10.35;;;1.92;;
55655;SDS011;41530;52.382;5.270;2023-02-04T05:32:15;9.93;;;2.28;;
55655;SDS011;41530;52.382;5.270;2023-02-04T05:34:42;9.70;;;2.17;;
55655;SDS011;41530;52.382;5.270;2023-02-04T05:37:09;11.38;;;2.00;;
55655;SDS011;41530;52.382;5.270;2023-02-04T05:39:35;11.52;;;2.20;;
55655;SDS011;41530;52.382;5.270;2023-02-04T05:42:03;8.52;;;1.90;;
55655;SDS011;41530;52.382;5.270;2023-02-04T05:44:30;7.15;;;1.95;;
55655;SDS011;41530;52.382;5.270;2023-02-04T05:46:57;11.10;;;2.00;;
55655;SDS011;41530;52.382;5.270;2023-02-04T05:49:24;9.07;;;2.15;;
55655;SDS011;41530;52.382;5.270;2023-02-04T05:51:51;9.70;;;2.03;;
55655;SDS011;41530;52.382;5.270;2023-02-04T05:54:18;8.00;;;1.55;;
55655;SDS011;41530;52.382;5.270;2023-02-04T05:56:46;10.82;;;1.95;;
55655;SDS011;41530;52.382;5.270;2023-02-04T05:59:13;9.57;;;2.10;;
55655;SDS011;41530;52.382;5.270;2023-02-04T06:01:40;6.78;;;1.90;;
55655;SDS011;41530;52.382;5.270;2023-02-04T06:04:07;7.13;;;1.83;;
55655;SDS011;41530;52.382;5.270;2023-02-04T06:06:34;8.15;;;1.90;;
55655;SDS011;41530;52.382;5.270;2023-02-04T06:09:00;6.65;;;2.08;;
55655;SDS011;41530;52.382;5.270;2023-02-04T06:11:27;6.70;;;1.67;;
55655;SDS011;41530;52.382;5.270;2023-02-04T06:13:54;9.95;;;1.92;;
55655;SDS011;41530;52.382;5.270;2023-02-04T06:16:21;8.88;;;1.98;;
55655;SDS011;41530;52.382;5.270;2023-02-04T06:18:48;8.95;;;2.00;;
55655;SDS011;41530;52.382;5.270;2023-02-04T06:21:15;7.47;;;2.30;;
55655;SDS011;41530;52.382;5.270;2023-02-04T06:23:42;9.77;;;1.90;;
55655;SDS011;41530;52.382;5.270;2023-02-04T06:26:09;10.95;;;2.53;;
55655;SDS011;41530;52.382;5.270;2023-02-04T06:28:35;8.30;;;1.60;;
55655;SDS011;41530;52.382;5.270;2023-02-04T06:31:02;7.35;;;1.63;;
55655;SDS011;41530;52.382;5.270;2023-02-04T06:33:29;10.40;;;2.15;;
55655;SDS011;41530;52.382;5.270;2023-02-04T06:35:56;8.63;;;2.10;;
55655;SDS011;41530;52.382;5.270;2023-02-04T06:38:23;7.55;;;2.17;;
55655;SDS011;41530;52.382;5.270;2023-02-04T06:40:50;8.18;;;1.85;;
55655;SDS011;41530;52.382;5.270;2023-02-04T06:43:19;9.65;;;2.28;;
55655;SDS011;41530;52.382;5.270;2023-02-04T06:45:47;8.13;;;1.80;;
55655;SDS011;41530;52.382;5.270;2023-02-04T06:48:13;8.60;;;2.00;;
55655;SDS011;41530;52.382;5.270;2023-02-04T06:50:40;10.65;;;1.90;;
55655;SDS011;41530;52.382;5.270;2023-02-04T06:53:07;8.02;;;1.70;;
55655;SDS011;41530;52.382;5.270;2023-02-04T06:55:34;9.23;;;2.10;;
55655;SDS011;41530;52.382;5.270;2023-02-04T06:58:00;10.68;;;2.17;;
55655;SDS011;41530;52.382;5.270;2023-02-04T07:00:27;7.72;;;1.95;;
55655;SDS011;41530;52.382;5.270;2023-02-04T07:02:56;7.25;;;1.90;;
55655;SDS011;41530;52.382;5.270;2023-02-04T07:05:24;9.13;;;1.98;;
55655;SDS011;41530;52.382;5.270;2023-02-04T07:07:51;9.23;;;1.88;;
55655;SDS011;41530;52.382;5.270;2023-02-04T07:10:17;9.48;;;1.73;;
55655;SDS011;41530;52.382;5.270;2023-02-04T07:12:46;10.35;;;2.10;;
55655;SDS011;41530;52.382;5.270;2023-02-04T07:15:12;8.98;;;1.80;;
55655;SDS011;41530;52.382;5.270;2023-02-04T07:17:40;6.40;;;1.58;;
55655;SDS011;41530;52.382;5.270;2023-02-04T07:20:07;7.45;;;1.70;;
55655;SDS011;41530;52.382;5.270;2023-02-04T07:22:36;7.60;;;1.85;;
55655;SDS011;41530;52.382;5.270;2023-02-04T07:25:03;8.20;;;1.80;;
55655;SDS011;41530;52.382;5.270;2023-02-04T07:27:30;12.73;;;2.30;;
55655;SDS011;41530;52.382;5.270;2023-02-04T07:29:58;9.07;;;1.75;;
55655;SDS011;41530;52.382;5.270;2023-02-04T07:32:25;8.10;;;1.95;;
55655;SDS011;41530;52.382;5.270;2023-02-04T07:34:52;6.28;;;1.50;;
55655;SDS011;41530;52.382;5.270;2023-02-04T07:37:20;11.32;;;2.20;;
55655;SDS011;41530;52.382;5.270;2023-02-04T07:39:48;8.93;;;2.10;;
55655;SDS011;41530;52.382;5.270;2023-02-04T07:42:15;8.30;;;1.83;;
55655;SDS011;41530;52.382;5.270;2023-02-04T07:44:43;11.57;;;1.70;;
55655;SDS011;41530;52.382;5.270;2023-02-04T07:47:10;12.90;;;2.08;;
55655;SDS011;41530;52.382;5.270;2023-02-04T07:49:37;9.15;;;1.80;;
55655;SDS011;41530;52.382;5.270;2023-02-04T07:52:04;6.57;;;2.10;;
55655;SDS011;41530;52.382;5.270;2023-02-04T07:54:31;8.45;;;2.15;;
55655;SDS011;41530;52.382;5.270;2023-02-04T07:56:58;10.20;;;1.70;;
55655;SDS011;41530;52.382;5.270;2023-02-04T07:59:25;6.85;;;1.52;;
55655;SDS011;41530;52.382;5.270;2023-02-04T08:01:52;9.38;;;1.95;;
55655;SDS011;41530;52.382;5.270;2023-02-04T08:04:18;5.38;;;1.55;;
55655;SDS011;41530;52.382;5.270;2023-02-04T08:06:45;7.35;;;1.95;;
55655;SDS011;41530;52.382;5.270;2023-02-04T08:09:11;8.32;;;1.77;;
55655;SDS011;41530;52.382;5.270;2023-02-04T08:11:38;7.63;;;1.63;;
55655;SDS011;41530;52.382;5.270;2023-02-04T08:14:05;8.05;;;1.83;;
55655;SDS011;41530;52.382;5.270;2023-02-04T08:16:31;7.47;;;1.63;;
55655;SDS011;41530;52.382;5.270;2023-02-04T08:18:58;8.50;;;1.65;;
55655;SDS011;41530;52.382;5.270;2023-02-04T08:21:25;9.13;;;1.88;;
55655;SDS011;41530;52.382;5.270;2023-02-04T08:23:52;7.10;;;1.83;;
55655;SDS011;41530;52.382;5.270;2023-02-04T08:26:19;8.98;;;2.00;;
55655;SDS011;41530;52.382;5.270;2023-02-04T08:28:46;6.18;;;1.65;;
55655;SDS011;41530;52.382;5.270;2023-02-04T08:31:13;9.38;;;1.88;;
55655;SDS011;41530;52.382;5.270;2023-02-04T08:33:40;8.43;;;1.65;;
55655;SDS011;41530;52.382;5.270;2023-02-04T08:36:07;7.13;;;1.80;;
55655;SDS011;41530;52.382;5.270;2023-02-04T08:38:35;10.40;;;1.42;;
55655;SDS011;41530;52.382;5.270;2023-02-04T08:41:01;9.07;;;1.75;;
55655;SDS011;41530;52.382;5.270;2023-02-04T08:43:28;6.28;;;1.70;;
55655;SDS011;41530;52.382;5.270;2023-02-04T08:45:56;7.63;;;1.70;;
55655;SDS011;41530;52.382;5.270;2023-02-04T08:48:22;8.32;;;2.00;;
55655;SDS011;41530;52.382;5.270;2023-02-04T08:50:49;5.97;;;1.70;;
55655;SDS011;41530;52.382;5.270;2023-02-04T08:53:16;9.15;;;1.63;;
55655;SDS011;41530;52.382;5.270;2023-02-04T08:55:43;5.95;;;1.75;;
55655;SDS011;41530;52.382;5.270;2023-02-04T08:58:10;5.97;;;1.70;;
55655;SDS011;41530;52.382;5.270;2023-02-04T09:00:37;5.22;;;1.55;;
55655;SDS011;41530;52.382;5.270;2023-02-04T09:03:04;5.13;;;1.60;;
55655;SDS011;41530;52.382;5.270;2023-02-04T09:05:31;4.78;;;1.83;;
55655;SDS011;41530;52.382;5.270;2023-02-04T09:07:58;6.93;;;1.40;;
55655;SDS011;41530;52.382;5.270;2023-02-04T09:10:25;6.07;;;1.38;;
55655;SDS011;41530;52.382;5.270;2023-02-04T09:12:51;5.70;;;1.42;;
55655;SDS011;41530;52.382;5.270;2023-02-04T09:15:24;5.50;;;1.55;;
55655;SDS011;41530;52.382;5.270;2023-02-04T09:17:52;5.97;;;1.70;;
55655;SDS011;41530;52.382;5.270;2023-02-04T09:20:20;7.43;;;1.65;;
55655;SDS011;41530;52.382;5.270;2023-02-04T09:22:47;6.10;;;1.50;;
55655;SDS011;41530;52.382;5.270;2023-02-04T09:25:15;8.48;;;2.17;;
55655;SDS011;41530;52.382;5.270;2023-02-04T09:27:42;8.73;;;1.90;;
55655;SDS011;41530;52.382;5.270;2023-02-04T09:30:09;8.82;;;1.63;;
55655;SDS011;41530;52.382;5.270;2023-02-04T09:32:36;7.43;;;1.58;;
55655;SDS011;41530;52.382;5.270;2023-02-04T09:35:03;8.77;;;1.83;;
55655;SDS011;41530;52.382;5.270;2023-02-04T09:37:30;6.18;;;1.83;;
55655;SDS011;41530;52.382;5.270;2023-02-04T09:39:57;5.22;;;1.60;;
55655;SDS011;41530;52.382;5.270;2023-02-04T09:42:24;8.15;;;1.45;;
55655;SDS011;41530;52.382;5.270;2023-02-04T09:44:51;5.20;;;1.42;;
55655;SDS011;41530;52.382;5.270;2023-02-04T09:47:20;6.80;;;2.03;;
55655;SDS011;41530;52.382;5.270;2023-02-04T09:49:50;5.03;;;1.45;;
55655;SDS011;41530;52.382;5.270;2023-02-04T09:52:17;6.22;;;1.58;;
55655;SDS011;41530;52.382;5.270;2023-02-04T09:54:44;8.52;;;2.03;;
55655;SDS011;41530;52.382;5.270;2023-02-04T09:57:14;7.07;;;1.63;;
55655;SDS011;41530;52.382;5.270;2023-02-04T09:59:45;6.18;;;1.50;;
55655;SDS011;41530;52.382;5.270;2023-02-04T10:02:19;6.97;;;1.90;;
55655;SDS011;41530;52.382;5.270;2023-02-04T10:04:49;6.93;;;1.77;;
55655;SDS011;41530;52.382;5.270;2023-02-04T10:07:19;6.60;;;1.60;;
55655;SDS011;41530;52.382;5.270;2023-02-04T10:09:50;5.75;;;1.77;;
55655;SDS011;41530;52.382;5.270;2023-02-04T10:12:18;3.75;;;1.38;;
55655;SDS011;41530;52.382;5.270;2023-02-04T10:14:45;7.60;;;1.75;;
55655;SDS011;41530;52.382;5.270;2023-02-04T10:17:13;6.88;;;1.55;;
55655;SDS011;41530;52.382;5.270;2023-02-04T10:19:45;6.93;;;1.40;;
55655;SDS011;41530;52.382;5.270;2023-02-04T10:22:19;5.93;;;1.90;;
55655;SDS011;41530;52.382;5.270;2023-02-04T10:24:46;5.60;;;1.67;;
55655;SDS011;41530;52.382;5.270;2023-02-04T10:27:13;4.68;;;1.30;;
55655;SDS011;41530;52.382;5.270;2023-02-04T10:29:53;3.70;;;1.30;;
55655;SDS011;41530;52.382;5.270;2023-02-04T10:32:31;7.13;;;1.70;;
55655;SDS011;41530;52.382;5.270;2023-02-04T10:35:00;5.30;;;1.40;;
55655;SDS011;41530;52.382;5.270;2023-02-04T10:37:27;4.88;;;1.40;;
55655;SDS011;41530;52.382;5.270;2023-02-04T10:39:55;4.35;;;1.63;;
55655;SDS011;41530;52.382;5.270;2023-02-04T10:42:23;7.28;;;1.40;;
55655;SDS011;41530;52.382;5.270;2023-02-04T10:44:52;11.13;;;1.70;;
55655;SDS011;41530;52.382;5.270;2023-02-04T10:47:20;5.40;;;1.50;;
55655;SDS011;41530;52.382;5.270;2023-02-04T10:52:34;5.75;;;1.52;;
55655;SDS011;41530;52.382;5.270;2023-02-04T10:55:04;4.88;;;1.50;;
55655;SDS011;41530;52.382;5.270;2023-02-04T10:57:34;5.53;;;1.63;;
55655;SDS011;41530;52.382;5.270;2023-02-04T11:00:06;8.25;;;1.88;;
55655;SDS011;41530;52.382;5.270;2023-02-04T11:05:15;7.43;;;1.55;;
55655;SDS011;41530;52.382;5.270;2023-02-04T11:07:45;7.00;;;1.60;;
55655;SDS011;41530;52.382;5.270;2023-02-04T11:10:14;5.90;;;1.40;;
55655;SDS011;41530;52.382;5.270;2023-02-04T11:12:57;5.07;;;1.42;;
55655;SDS011;41530;52.382;5.270;2023-02-04T11:15:45;6.97;;;1.52;;
55655;SDS011;41530;52.382;5.270;2023-02-04T11:20:48;8.90;;;1.67;;
55655;SDS011;41530;52.382;5.270;2023-02-04T11:26:11;3.42;;;1.33;;
55655;SDS011;41530;52.382;5.270;2023-02-04T11:33:46;3.72;;;1.42;;
55655;SDS011;41530;52.382;5.270;2023-02-04T11:36:15;3.58;;;1.13;;
55655;SDS011;41530;52.382;5.270;2023-02-04T11:38:45;7.18;;;1.25;;
55655;SDS011;41530;52.382;5.270;2023-02-04T11:41:32;6.28;;;1.48;;
55655;SDS011;41530;52.382;5.270;2023-02-04T11:44:00;6.43;;;1.50;;
55655;SDS011;41530;52.382;5.270;2023-02-04T11:46:27;6.68;;;1.58;;
55655;SDS011;41530;52.382;5.270;2023-02-04T11:48:56;6.47;;;1.38;;
55655;SDS011;41530;52.382;5.270;2023-02-04T11:51:29;6.40;;;1.45;;
55655;SDS011;41530;52.382;5.270;2023-02-04T11:53:58;4.75;;;1.20;;
55655;SDS011;41530;52.382;5.270;2023-02-04T11:56:26;5.60;;;1.27;;
55655;SDS011;41530;52.382;5.270;2023-02-04T11:58:55;5.03;;;1.25;;
55655;SDS011;41530;52.382;5.270;2023-02-04T12:01:28;6.82;;;1.42;;
55655;SDS011;41530;52.382;5.270;2023-02-04T12:03:58;7.10;;;1.65;;
55655;SDS011;41530;52.382;5.270;2023-02-04T12:06:31;3.88;;;1.65;;
55655;SDS011;41530;52.382;5.270;2023-02-04T12:09:06;4.97;;;1.50;;
55655;SDS011;41530;52.382;5.270;2023-02-04T12:11:53;4.07;;;1.40;;
55655;SDS011;41530;52.382;5.270;2023-02-04T12:14:30;3.60;;;1.30;;
55655;SDS011;41530;52.382;5.270;2023-02-04T12:16:59;4.68;;;1.10;;
55655;SDS011;41530;52.382;5.270;2023-02-04T12:19:26;5.85;;;1.20;;
55655;SDS011;41530;52.382;5.270;2023-02-04T12:21:53;4.97;;;1.10;;
55655;SDS011;41530;52.382;5.270;2023-02-04T12:24:20;6.20;;;1.40;;
55655;SDS011;41530;52.382;5.270;2023-02-04T12:26:47;5.25;;;1.52;;
55655;SDS011;41530;52.382;5.270;2023-02-04T12:29:14;4.10;;;1.20;;
55655;SDS011;41530;52.382;5.270;2023-02-04T12:31:40;7.70;;;1.60;;
55655;SDS011;41530;52.382;5.270;2023-02-04T12:34:07;4.35;;;1.40;;
55655;SDS011;41530;52.382;5.270;2023-02-04T12:36:34;4.80;;;1.35;;
55655;SDS011;41530;52.382;5.270;2023-02-04T12:39:01;4.20;;;1.27;;
55655;SDS011;41530;52.382;5.270;2023-02-04T12:41:29;6.40;;;1.50;;
55655;SDS011;41530;52.382;5.270;2023-02-04T12:43:55;7.07;;;1.30;;
55655;SDS011;41530;52.382;5.270;2023-02-04T12:46:22;4.35;;;1.20;;
55655;SDS011;41530;52.382;5.270;2023-02-04T12:48:49;3.78;;;1.05;;
55655;SDS011;41530;52.382;5.270;2023-02-04T12:51:16;3.97;;;1.25;;
55655;SDS011;41530;52.382;5.270;2023-02-04T12:53:42;5.03;;;1.38;;
55655;SDS011;41530;52.382;5.270;2023-02-04T12:56:09;4.82;;;1.20;;
55655;SDS011;41530;52.382;5.270;2023-02-04T12:58:37;7.00;;;1.80;;
55655;SDS011;41530;52.382;5.270;2023-02-04T13:01:03;4.80;;;1.00;;
55655;SDS011;41530;52.382;5.270;2023-02-04T13:03:31;3.72;;;1.10;;
55655;SDS011;41530;52.382;5.270;2023-02-04T13:05:58;4.75;;;1.20;;
55655;SDS011;41530;52.382;5.270;2023-02-04T13:08:25;4.85;;;1.25;;
55655;SDS011;41530;52.382;5.270;2023-02-04T13:10:52;4.95;;;1.20;;
55655;SDS011;41530;52.382;5.270;2023-02-04T13:13:19;8.23;;;1.70;;
55655;SDS011;41530;52.382;5.270;2023-02-04T13:15:47;9.30;;;1.20;;
55655;SDS011;41530;52.382;5.270;2023-02-04T13:18:14;10.23;;;1.67;;
55655;SDS011;41530;52.382;5.270;2023-02-04T13:20:42;8.73;;;1.70;;
55655;SDS011;41530;52.382;5.270;2023-02-04T13:23:11;4.20;;;1.15;;
55655;SDS011;41530;52.382;5.270;2023-02-04T13:25:38;3.70;;;1.05;;
55655;SDS011;41530;52.382;5.270;2023-02-04T13:28:05;4.40;;;1.35;;
55655;SDS011;41530;52.382;5.270;2023-02-04T13:30:33;4.80;;;1.50;;
55655;SDS011;41530;52.382;5.270;2023-02-04T13:32:59;5.65;;;1.45;;
55655;SDS011;41530;52.382;5.270;2023-02-04T13:35:26;6.22;;;1.58;;
55655;SDS011;41530;52.382;5.270;2023-02-04T13:37:53;6.13;;;1.30;;
55655;SDS011;41530;52.382;5.270;2023-02-04T13:40:21;4.22;;;1.10;;
55655;SDS011;41530;52.382;5.270;2023-02-04T13:42:48;6.10;;;1.02;;
55655;SDS011;41530;52.382;5.270;2023-02-04T13:45:15;3.42;;;1.20;;
55655;SDS011;41530;52.382;5.270;2023-02-04T13:47:44;4.97;;;1.35;;
55655;SDS011;41530;52.382;5.270;2023-02-04T13:50:14;3.03;;;1.05;;
55655;SDS011;41530;52.382;5.270;2023-02-04T13:52:41;7.97;;;1.40;;
55655;SDS011;41530;52.382;5.270;2023-02-04T13:55:08;5.50;;;1.35;;
55655;SDS011;41530;52.382;5.270;2023-02-04T13:57:35;7.97;;;1.77;;
55655;SDS011;41530;52.382;5.270;2023-02-04T14:00:04;7.90;;;1.30;;
55655;SDS011;41530;52.382;5.270;2023-02-04T14:02:32;5.43;;;1.40;;
55655;SDS011;41530;52.382;5.270;2023-02-04T14:04:59;6.75;;;1.80;;
55655;SDS011;41530;52.382;5.270;2023-02-04T14:07:26;7.03;;;1.67;;
55655;SDS011;41530;52.382;5.270;2023-02-04T14:09:53;11.38;;;1.95;;
55655;SDS011;41530;52.382;5.270;2023-02-04T14:12:20;7.53;;;1.83;;
55655;SDS011;41530;52.382;5.270;2023-02-04T14:14:47;9.32;;;1.60;;
55655;SDS011;41530;52.382;5.270;2023-02-04T14:17:14;8.13;;;1.90;;
55655;SDS011;41530;52.382;5.270;2023-02-04T14:19:40;10.05;;;2.03;;
55655;SDS011;41530;52.382;5.270;2023-02-04T14:22:07;9.82;;;1.60;;
55655;SDS011;41530;52.382;5.270;2023-02-04T14:24:38;10.20;;;1.70;;
55655;SDS011;41530;52.382;5.270;2023-02-04T14:27:07;10.45;;;2.00;;
55655;SDS011;41530;52.382;5.270;2023-02-04T14:29:35;6.13;;;1.50;;
55655;SDS011;41530;52.382;5.270;2023-02-04T14:32:02;8.65;;;1.80;;
55655;SDS011;41530;52.382;5.270;2023-02-04T14:34:28;5.72;;;1.50;;
55655;SDS011;41530;52.382;5.270;2023-02-04T14:36:55;6.43;;;1.60;;
55655;SDS011;41530;52.382;5.270;2023-02-04T14:39:22;7.05;;;1.55;;
55655;SDS011;41530;52.382;5.270;2023-02-04T14:41:48;10.32;;;2.25;;
55655;SDS011;41530;52.382;5.270;2023-02-04T14:44:15;5.63;;;1.88;;
55655;SDS011;41530;52.382;5.270;2023-02-04T14:46:46;8.93;;;1.95;;
55655;SDS011;41530;52.382;5.270;2023-02-04T14:49:17;8.43;;;1.75;;
55655;SDS011;41530;52.382;5.270;2023-02-04T14:51:43;11.30;;;1.77;;
55655;SDS011;41530;52.382;5.270;2023-02-04T14:54:10;10.30;;;2.17;;
55655;SDS011;41530;52.382;5.270;2023-02-04T14:56:37;8.15;;;1.92;;
55655;SDS011;41530;52.382;5.270;2023-02-04T14:59:04;7.50;;;1.50;;
55655;SDS011;41530;52.382;5.270;2023-02-04T15:01:31;9.38;;;1.92;;
55655;SDS011;41530;52.382;5.270;2023-02-04T15:03:58;5.57;;;1.60;;
55655;SDS011;41530;52.382;5.270;2023-02-04T15:06:25;10.25;;;1.75;;
55655;SDS011;41530;52.382;5.270;2023-02-04T15:08:52;7.10;;;1.83;;